sensor_id;sensor_type;location;lat;lon;timestamp;pressure;altitude;pressure_sealevel;temperature;humidity
6433;BME280;3249;42.690;23.260;2023-04-25T00:00:08;93510.69;;;10.73;100.00
6433;BME280;3249;42.690;23.260;2023-04-25T00:02:40;93493.59;;;10.67;100.00
6433;BME280;3249;42.690;23.260;2023-04-25T00:05:09;93489.63;;;10.59;100.00
6433;BME280;3249;42.690;23.260;2023-04-25T00:07:40;93483.31;;;10.50;100.00
6433;BME280;3249;42.690;23.260;2023-04-25T00:10:10;93464.47;;;10.45;100.00
6433;BME280;3249;42.690;23.260;2023-04-25T00:12:40;93460.16;;;10.34;100.00
6433;BME280;3249;42.690;23.260;2023-04-25T00:15:11;93463.59;;;10.56;100.00
6433;BME280;3249;42.690;23.260;2023-04-25T00:17:40;93469.44;;;10.51;100.00
6433;BME280;3249;42.690;23.260;2023-04-25T00:20:10;93473.19;;;10.44;100.00
6433;BME280;3249;42.690;23.260;2023-04-25T00:22:42;93475.94;;;10.37;100.00
6433;BME280;3249;42.690;23.260;2023-04-25T00:25:11;93471.84;;;10.58;100.00
6433;BME280;3249;42.690;23.260;2023-04-25T00:27:40;93480.97;;;10.65;100.00
6433;BME280;3249;42.690;23.260;2023-04-25T00:30:10;93475.56;;;10.67;100.00
6433;BME280;3249;42.690;23.260;2023-04-25T00:32:40;93481.41;;;10.79;100.00
6433;BME280;3249;42.690;23.260;2023-04-25T00:35:09;93471.63;;;10.59;100.00
6433;BME280;3249;42.690;23.260;2023-04-25T00:37:38;93483.56;;;10.16;100.00
6433;BME280;3249;42.690;23.260;2023-04-25T00:40:10;93477.31;;;9.84;100.00
6433;BME280;3249;42.690;23.260;2023-04-25T00:42:39;93484.31;;;9.88;100.00
6433;BME280;3249;42.690;23.260;2023-04-25T00:45:12;93480.03;;;9.94;100.00
6433;BME280;3249;42.690;23.260;2023-04-25T00:47:42;93453.53;;;9.77;100.00
6433;BME280;3249;42.690;23.260;2023-04-25T00:50:11;93478.81;;;9.96;100.00
6433;BME280;3249;42.690;23.260;2023-04-25T00:52:43;93471.91;;;10.13;100.00
6433;BME280;3249;42.690;23.260;2023-04-25T00:55:15;93470.69;;;10.16;100.00
6433;BME280;3249;42.690;23.260;2023-04-25T00:57:45;93461.50;;;10.20;100.00
6433;BME280;3249;42.690;23.260;2023-04-25T01:00:14;93463.38;;;9.96;100.00
6433;BME280;3249;42.690;23.260;2023-04-25T01:02:44;93444.66;;;9.84;100.00
6433;BME280;3249;42.690;23.260;2023-04-25T01:05:14;93443.53;;;9.92;100.00
6433;BME280;3249;42.690;23.260;2023-04-25T01:07:45;93445.00;;;9.59;100.00
6433;BME280;3249;42.690;23.260;2023-04-25T01:10:16;93440.34;;;9.57;100.00
6433;BME280;3249;42.690;23.260;2023-04-25T01:12:46;93439.25;;;9.52;100.00
6433;BME280;3249;42.690;23.260;2023-04-25T01:15:15;93432.91;;;9.43;100.00
6433;BME280;3249;42.690;23.260;2023-04-25T01:17:44;93428.63;;;9.49;100.00
6433;BME280;3249;42.690;23.260;2023-04-25T01:20:15;93431.16;;;9.61;100.00
6433;BME280;3249;42.690;23.260;2023-04-25T01:22:47;93425.84;;;9.50;100.00
6433;BME280;3249;42.690;23.260;2023-04-25T01:25:16;93427.53;;;9.45;100.00
6433;BME280;3249;42.690;23.260;2023-04-25T01:27:46;93412.09;;;9.28;100.00
6433;BME280;3249;42.690;23.260;2023-04-25T01:30:16;93434.28;;;9.63;100.00
6433;BME280;3249;42.690;23.260;2023-04-25T01:32:47;93419.19;;;9.66;100.00
6433;BME280;3249;42.690;23.260;2023-04-25T01:35:17;93439.03;;;9.71;100.00
6433;BME280;3249;42.690;23.260;2023-04-25T01:37:48;93427.72;;;9.55;100.00
6433;BME280;3249;42.690;23.260;2023-04-25T01:40:17;93442.09;;;9.68;100.00
6433;BME280;3249;42.690;23.260;2023-04-25T01:42:47;93438.97;;;9.66;100.00
6433;BME280;3249;42.690;23.260;2023-04-25T01:45:16;93429.13;;;9.63;100.00
6433;BME280;3249;42.690;23.260;2023-04-25T01:47:45;93423.25;;;9.22;100.00
6433;BME280;3249;42.690;23.260;2023-04-25T01:50:17;93430.97;;;9.22;100.00
6433;BME280;3249;42.690;23.260;2023-04-25T01:52:50;93427.94;;;9.25;100.00
6433;BME280;3249;42.690;23.260;2023-04-25T01:55:21;93433.97;;;9.19;100.00
6433;BME280;3249;42.690;23.260;2023-04-25T01:58:02;93440.59;;;9.43;100.00
6433;BME280;3249;42.690;23.260;2023-04-25T02:00:53;93440.50;;;9.50;100.00
6433;BME280;3249;42.690;23.260;2023-04-25T02:03:25;93442.31;;;9.66;100.00
6433;BME280;3249;42.690;23.260;2023-04-25T02:05:55;93433.03;;;9.65;100.00
6433;BME280;3249;42.690;23.260;2023-04-25T02:08:27;93426.91;;;9.38;100.00
6433;BME280;3249;42.690;23.260;2023-04-25T02:10:57;93396.53;;;9.35;100.00
6433;BME280;3249;42.690;23.260;2023-04-25T02:13:32;93415.78;;;9.49;100.00
6433;BME280;3249;42.690;23.260;2023-04-25T02:16:10;93422.13;;;9.58;100.00
6433;BME280;3249;42.690;23.260;2023-04-25T02:18:39;93422.00;;;9.65;100.00
6433;BME280;3249;42.690;23.260;2023-04-25T02:21:08;93414.19;;;9.31;100.00
6433;BME280;3249;42.690;23.260;2023-04-25T02:23:40;93412.28;;;8.99;100.00
6433;BME280;3249;42.690;23.260;2023-04-25T02:26:11;93393.00;;;8.96;100.00
6433;BME280;3249;42.690;23.260;2023-04-25T02:28:41;93398.81;;;8.92;100.00
6433;BME280;3249;42.690;23.260;2023-04-25T02:31:10;93396.09;;;8.98;100.00
6433;BME280;3249;42.690;23.260;2023-04-25T02:33:39;93364.56;;;8.86;100.00
6433;BME280;3249;42.690;23.260;2023-04-25T02:36:26;93394.47;;;9.20;100.00
6433;BME280;3249;42.690;23.260;2023-04-25T02:39:00;93387.69;;;9.14;100.00
6433;BME280;3249;42.690;23.260;2023-04-25T02:41:29;93385.47;;;9.06;100.00
6433;BME280;3249;42.690;23.260;2023-04-25T02:43:58;93366.31;;;8.97;100.00
6433;BME280;3249;42.690;23.260;2023-04-25T02:46:27;93363.69;;;8.81;100.00
6433;BME280;3249;42.690;23.260;2023-04-25T02:48:56;93373.22;;;9.08;100.00
6433;BME280;3249;42.690;23.260;2023-04-25T02:51:25;93374.75;;;9.09;100.00
6433;BME280;3249;42.690;23.260;2023-04-25T02:53:54;93368.69;;;9.15;100.00
6433;BME280;3249;42.690;23.260;2023-04-25T02:56:26;93369.53;;;9.04;100.00
6433;BME280;3249;42.690;23.260;2023-04-25T02:58:55;93377.59;;;8.96;100.00
6433;BME280;3249;42.690;23.260;2023-04-25T03:01:24;93368.69;;;8.87;100.00
6433;BME280;3249;42.690;23.260;2023-04-25T03:03:53;93312.56;;;8.51;100.00
6433;BME280;3249;42.690;23.260;2023-04-25T03:06:22;93355.59;;;9.00;100.00
6433;BME280;3249;42.690;23.260;2023-04-25T03:08:52;93353.91;;;9.06;100.00
6433;BME280;3249;42.690;23.260;2023-04-25T03:11:21;93364.28;;;9.11;100.00
6433;BME280;3249;42.690;23.260;2023-04-25T03:13:52;93361.78;;;9.16;100.00
6433;BME280;3249;42.690;23.260;2023-04-25T03:16:21;93357.44;;;8.88;100.00
6433;BME280;3249;42.690;23.260;2023-04-25T03:18:50;93352.00;;;8.73;100.00
6433;BME280;3249;42.690;23.260;2023-04-25T03:21:20;93329.72;;;8.62;100.00
6433;BME280;3249;42.690;23.260;2023-04-25T03:23:48;93355.50;;;8.95;100.00
6433;BME280;3249;42.690;23.260;2023-04-25T03:26:17;93360.38;;;9.08;100.00
6433;BME280;3249;42.690;23.260;2023-04-25T03:28:48;93358.94;;;9.01;100.00
6433;BME280;3249;42.690;23.260;2023-04-25T03:31:19;93366.47;;;9.19;100.00
6433;BME280;3249;42.690;23.260;2023-04-25T03:33:48;93361.13;;;9.09;100.00
6433;BME280;3249;42.690;23.260;2023-04-25T03:36:20;93363.19;;;9.23;100.00
6433;BME280;3249;42.690;23.260;2023-04-25T03:38:49;93360.09;;;9.21;100.00
6433;BME280;3249;42.690;23.260;2023-04-25T03:41:20;93362.44;;;9.23;100.00
6433;BME280;3249;42.690;23.260;2023-04-25T03:43:55;93359.94;;;9.28;100.00
6433;BME280;3249;42.690;23.260;2023-04-25T03:46:27;93345.88;;;9.02;100.00
6433;BME280;3249;42.690;23.260;2023-04-25T03:48:56;93356.72;;;8.93;100.00
6433;BME280;3249;42.690;23.260;2023-04-25T03:51:35;93355.38;;;9.30;100.00
6433;BME280;3249;42.690;23.260;2023-04-25T03:54:04;93351.19;;;9.57;100.00
6433;BME280;3249;42.690;23.260;2023-04-25T03:56:39;93347.47;;;9.81;100.00
6433;BME280;3249;42.690;23.260;2023-04-25T03:59:16;93377.22;;;10.27;100.00
6433;BME280;3249;42.690;23.260;2023-04-25T04:01:48;93371.34;;;10.10;100.00
6433;BME280;3249;42.690;23.260;2023-04-25T04:04:17;93368.25;;;10.08;100.00
6433;BME280;3249;42.690;23.260;2023-04-25T04:06:47;93376.94;;;9.90;100.00
6433;BME280;3249;42.690;23.260;2023-04-25T04:09:22;93363.38;;;9.33;100.00
6433;BME280;3249;42.690;23.260;2023-04-25T04:11:53;93362.81;;;9.76;100.00
6433;BME280;3249;42.690;23.260;2023-04-25T04:14:22;93362.91;;;9.98;100.00
6433;BME280;3249;42.690;23.260;2023-04-25T04:16:54;93374.94;;;10.25;100.00
6433;BME280;3249;42.690;23.260;2023-04-25T04:19:23;93367.94;;;10.42;100.00
6433;BME280;3249;42.690;23.260;2023-04-25T04:22:02;93378.56;;;10.67;100.00
6433;BME280;3249;42.690;23.260;2023-04-25T04:24:31;93376.00;;;10.67;100.00
6433;BME280;3249;42.690;23.260;2023-04-25T04:27:04;93370.13;;;10.50;100.00
6433;BME280;3249;42.690;23.260;2023-04-25T04:29:40;93363.19;;;10.72;100.00
6433;BME280;3249;42.690;23.260;2023-04-25T04:32:33;93370.00;;;10.62;100.00
6433;BME280;3249;42.690;23.260;2023-04-25T04:35:05;93366.50;;;10.68;100.00
6433;BME280;3249;42.690;23.260;2023-04-25T04:37:35;93368.66;;;10.76;100.00
6433;BME280;3249;42.690;23.260;2023-04-25T04:40:07;93364.81;;;10.40;100.00
6433;BME280;3249;42.690;23.260;2023-04-25T04:42:42;93365.47;;;9.98;100.00
6433;BME280;3249;42.690;23.260;2023-04-25T04:45:26;93376.22;;;9.95;100.00
6433;BME280;3249;42.690;23.260;2023-04-25T04:48:09;93379.66;;;9.84;100.00
6433;BME280;3249;42.690;23.260;2023-04-25T04:51:06;93370.00;;;9.74;100.00
6433;BME280;3249;42.690;23.260;2023-04-25T04:53:48;93366.09;;;9.72;100.00
6433;BME280;3249;42.690;23.260;2023-04-25T04:56:29;93391.25;;;10.03;100.00
6433;BME280;3249;42.690;23.260;2023-04-25T04:59:14;93380.31;;;10.07;100.00
6433;BME280;3249;42.690;23.260;2023-04-25T05:02:03;93372.31;;;9.59;100.00
6433;BME280;3249;42.690;23.260;2023-04-25T05:05:04;93385.94;;;9.76;100.00
6433;BME280;3249;42.690;23.260;2023-04-25T05:07:50;93390.69;;;9.84;100.00
6433;BME280;3249;42.690;23.260;2023-04-25T05:10:42;93398.09;;;9.97;100.00
6433;BME280;3249;42.690;23.260;2023-04-25T05:13:31;93396.75;;;10.06;100.00
6433;BME280;3249;42.690;23.260;2023-04-25T05:16:14;93404.72;;;9.93;100.00
6433;BME280;3249;42.690;23.260;2023-04-25T05:19:10;93408.25;;;10.04;100.00
6433;BME280;3249;42.690;23.260;2023-04-25T05:21:54;93405.34;;;9.84;100.00
6433;BME280;3249;42.690;23.260;2023-04-25T05:24:35;93404.88;;;9.87;100.00
6433;BME280;3249;42.690;23.260;2023-04-25T05:27:27;93397.78;;;9.94;100.00
6433;BME280;3249;42.690;23.260;2023-04-25T05:30:25;93393.88;;;9.75;100.00
6433;BME280;3249;42.690;23.260;2023-04-25T05:33:08;93393.59;;;9.88;100.00
6433;BME280;3249;42.690;23.260;2023-04-25T05:35:38;93390.88;;;10.11;100.00
6433;BME280;3249;42.690;23.260;2023-04-25T05:38:09;93400.84;;;10.40;100.00
6433;BME280;3249;42.690;23.260;2023-04-25T05:40:57;93403.16;;;10.58;100.00
6433;BME280;3249;42.690;23.260;2023-04-25T05:43:42;93399.72;;;10.69;100.00
6433;BME280;3249;42.690;23.260;2023-04-25T05:46:31;93403.34;;;10.35;100.00
6433;BME280;3249;42.690;23.260;2023-04-25T05:49:09;93406.69;;;10.74;100.00
6433;BME280;3249;42.690;23.260;2023-04-25T05:51:59;93404.19;;;10.79;100.00
6433;BME280;3249;42.690;23.260;2023-04-25T05:54:53;93406.22;;;10.77;100.00
6433;BME280;3249;42.690;23.260;2023-04-25T05:57:22;93400.91;;;11.05;100.00
6433;BME280;3249;42.690;23.260;2023-04-25T05:59:53;93403.63;;;11.15;100.00
6433;BME280;3249;42.690;23.260;2023-04-25T06:02:39;93404.69;;;11.19;100.00
6433;BME280;3249;42.690;23.260;2023-04-25T06:05:09;93405.41;;;10.93;100.00
6433;BME280;3249;42.690;23.260;2023-04-25T06:07:39;93364.63;;;10.63;100.00
6433;BME280;3249;42.690;23.260;2023-04-25T06:10:12;93407.59;;;10.84;100.00
6433;BME280;3249;42.690;23.260;2023-04-25T06:12:42;93406.53;;;11.02;100.00
6433;BME280;3249;42.690;23.260;2023-04-25T06:15:12;93414.22;;;11.18;100.00
6433;BME280;3249;42.690;23.260;2023-04-25T06:17:41;93414.22;;;11.18;100.00
6433;BME280;3249;42.690;23.260;2023-04-25T06:20:12;93412.88;;;11.37;100.00
6433;BME280;3249;42.690;23.260;2023-04-25T06:22:41;93414.13;;;11.56;100.00
6433;BME280;3249;42.690;23.260;2023-04-25T06:25:13;93417.06;;;11.65;100.00
6433;BME280;3249;42.690;23.260;2023-04-25T06:27:42;93406.69;;;11.60;100.00
6433;BME280;3249;42.690;23.260;2023-04-25T06:30:13;93420.75;;;11.74;100.00
6433;BME280;3249;42.690;23.260;2023-04-25T06:32:44;93418.81;;;11.38;100.00
6433;BME280;3249;42.690;23.260;2023-04-25T06:35:13;93422.44;;;11.90;100.00
6433;BME280;3249;42.690;23.260;2023-04-25T06:37:42;93426.13;;;12.30;100.00
6433;BME280;3249;42.690;23.260;2023-04-25T06:40:14;93431.16;;;12.42;100.00
6433;BME280;3249;42.690;23.260;2023-04-25T06:42:43;93432.38;;;12.76;100.00
6433;BME280;3249;42.690;23.260;2023-04-25T06:45:46;93431.78;;;13.00;100.00
6433;BME280;3249;42.690;23.260;2023-04-25T06:48:15;93436.25;;;13.15;100.00
6433;BME280;3249;42.690;23.260;2023-04-25T06:50:44;93430.09;;;13.26;100.00
6433;BME280;3249;42.690;23.260;2023-04-25T06:53:13;93433.66;;;13.15;100.00
6433;BME280;3249;42.690;23.260;2023-04-25T06:55:48;93439.88;;;13.24;100.00
6433;BME280;3249;42.690;23.260;2023-04-25T06:58:20;93431.09;;;13.20;100.00
6433;BME280;3249;42.690;23.260;2023-04-25T07:01:00;93428.72;;;13.03;100.00
6433;BME280;3249;42.690;23.260;2023-04-25T07:03:29;93427.91;;;13.03;100.00
6433;BME280;3249;42.690;23.260;2023-04-25T07:06:03;93434.63;;;12.99;100.00
6433;BME280;3249;42.690;23.260;2023-04-25T07:08:33;93413.13;;;12.52;100.00
6433;BME280;3249;42.690;23.260;2023-04-25T07:11:05;93439.75;;;12.57;100.00
6433;BME280;3249;42.690;23.260;2023-04-25T07:13:36;93385.44;;;12.42;100.00
6433;BME280;3249;42.690;23.260;2023-04-25T07:16:07;93435.78;;;12.81;100.00
6433;BME280;3249;42.690;23.260;2023-04-25T07:18:40;93438.69;;;12.95;100.00
6433;BME280;3249;42.690;23.260;2023-04-25T07:21:09;93435.44;;;13.04;100.00
6433;BME280;3249;42.690;23.260;2023-04-25T07:23:41;93429.28;;;12.74;100.00
6433;BME280;3249;42.690;23.260;2023-04-25T07:26:17;93430.84;;;12.75;100.00
6433;BME280;3249;42.690;23.260;2023-04-25T07:29:07;93422.78;;;13.08;100.00
6433;BME280;3249;42.690;23.260;2023-04-25T07:31:37;93427.00;;;12.82;100.00
6433;BME280;3249;42.690;23.260;2023-04-25T07:34:07;93411.56;;;12.92;100.00
6433;BME280;3249;42.690;23.260;2023-04-25T07:36:38;93398.84;;;13.27;100.00
6433;BME280;3249;42.690;23.260;2023-04-25T07:39:09;93412.88;;;13.51;100.00
6433;BME280;3249;42.690;23.260;2023-04-25T07:41:42;93420.25;;;13.23;100.00
6433;BME280;3249;42.690;23.260;2023-04-25T07:44:20;93409.13;;;13.17;100.00
6433;BME280;3249;42.690;23.260;2023-04-25T07:46:49;93418.63;;;13.07;100.00
6433;BME280;3249;42.690;23.260;2023-04-25T07:49:19;93424.06;;;13.77;100.00
6433;BME280;3249;42.690;23.260;2023-04-25T07:51:49;93418.13;;;14.12;100.00
6433;BME280;3249;42.690;23.260;2023-04-25T07:54:19;93417.41;;;14.21;100.00
6433;BME280;3249;42.690;23.260;2023-04-25T07:56:58;93407.75;;;13.76;100.00
6433;BME280;3249;42.690;23.260;2023-04-25T07:59:29;93405.19;;;14.02;100.00
6433;BME280;3249;42.690;23.260;2023-04-25T08:02:02;93388.38;;;14.24;100.00
6433;BME280;3249;42.690;23.260;2023-04-25T08:04:45;93389.88;;;14.85;100.00
6433;BME280;3249;42.690;23.260;2023-04-25T08:07:17;93411.53;;;15.24;100.00
6433;BME280;3249;42.690;23.260;2023-04-25T08:09:52;93400.94;;;15.69;100.00
6433;BME280;3249;42.690;23.260;2023-04-25T08:12:29;93420.47;;;16.05;96.87
6433;BME280;3249;42.690;23.260;2023-04-25T08:15:02;93423.59;;;16.02;91.64
6433;BME280;3249;42.690;23.260;2023-04-25T08:17:35;93426.09;;;16.17;89.72
6433;BME280;3249;42.690;23.260;2023-04-25T08:20:10;93429.16;;;16.24;89.30
6433;BME280;3249;42.690;23.260;2023-04-25T08:22:40;93421.69;;;16.13;89.79
6433;BME280;3249;42.690;23.260;2023-04-25T08:25:32;93409.09;;;15.91;88.23
6433;BME280;3249;42.690;23.260;2023-04-25T08:28:06;93413.88;;;15.74;86.13
6433;BME280;3249;42.690;23.260;2023-04-25T08:30:38;93415.84;;;15.49;98.75
6433;BME280;3249;42.690;23.260;2023-04-25T08:33:11;93420.34;;;15.18;100.00
6433;BME280;3249;42.690;23.260;2023-04-25T08:35:47;93409.28;;;14.93;100.00
6433;BME280;3249;42.690;23.260;2023-04-25T08:38:20;93411.09;;;14.87;100.00
6433;BME280;3249;42.690;23.260;2023-04-25T08:40:50;93406.75;;;14.18;100.00
6433;BME280;3249;42.690;23.260;2023-04-25T08:43:25;93407.53;;;14.53;100.00
6433;BME280;3249;42.690;23.260;2023-04-25T08:45:54;93407.81;;;14.27;100.00
6433;BME280;3249;42.690;23.260;2023-04-25T08:48:40;93407.53;;;14.48;100.00
6433;BME280;3249;42.690;23.260;2023-04-25T08:51:15;93390.94;;;14.64;100.00
6433;BME280;3249;42.690;23.260;2023-04-25T08:53:47;93394.59;;;14.18;100.00
6433;BME280;3249;42.690;23.260;2023-04-25T08:56:18;93384.25;;;14.38;100.00
6433;BME280;3249;42.690;23.260;2023-04-25T08:58:55;93389.63;;;14.72;100.00
6433;BME280;3249;42.690;23.260;2023-04-25T09:01:24;93326.72;;;14.56;100.00
6433;BME280;3249;42.690;23.260;2023-04-25T09:03:53;93385.78;;;14.54;100.00
6433;BME280;3249;42.690;23.260;2023-04-25T09:06:23;93380.56;;;14.84;100.00
6433;BME280;3249;42.690;23.260;2023-04-25T09:08:53;93393.50;;;15.53;100.00
6433;BME280;3249;42.690;23.260;2023-04-25T09:11:22;93386.22;;;15.60;100.00
6433;BME280;3249;42.690;23.260;2023-04-25T09:14:10;93393.66;;;15.76;100.00
6433;BME280;3249;42.690;23.260;2023-04-25T09:17:03;93382.13;;;15.92;100.00
6433;BME280;3249;42.690;23.260;2023-04-25T09:19:53;93397.03;;;16.49;100.00
6433;BME280;3249;42.690;23.260;2023-04-25T09:22:26;93386.47;;;16.02;93.17
6433;BME280;3249;42.690;23.260;2023-04-25T09:24:56;93384.88;;;16.39;89.82
6433;BME280;3249;42.690;23.260;2023-04-25T09:27:28;93382.63;;;16.61;73.02
6433;BME280;3249;42.690;23.260;2023-04-25T09:30:13;93404.16;;;16.67;59.52
6433;BME280;3249;42.690;23.260;2023-04-25T09:33:09;93402.69;;;16.56;60.31
6433;BME280;3249;42.690;23.260;2023-04-25T09:35:44;93397.56;;;16.74;60.15
6433;BME280;3249;42.690;23.260;2023-04-25T09:38:41;93379.22;;;16.66;63.45
6433;BME280;3249;42.690;23.260;2023-04-25T09:41:27;93400.81;;;16.90;58.58
6433;BME280;3249;42.690;23.260;2023-04-25T09:44:00;93386.16;;;16.75;57.94
6433;BME280;3249;42.690;23.260;2023-04-25T09:46:43;93394.22;;;16.97;59.55
6433;BME280;3249;42.690;23.260;2023-04-25T09:49:19;93387.59;;;17.10;56.08
6433;BME280;3249;42.690;23.260;2023-04-25T09:52:07;93382.09;;;15.97;100.00
6433;BME280;3249;42.690;23.260;2023-04-25T09:54:44;93350.72;;;15.50;100.00
6433;BME280;3249;42.690;23.260;2023-04-25T09:57:18;93367.56;;;15.96;100.00
6433;BME280;3249;42.690;23.260;2023-04-25T09:59:54;93334.31;;;15.98;100.00
6433;BME280;3249;42.690;23.260;2023-04-25T10:05:57;93323.28;;;16.16;95.66
6433;BME280;3249;42.690;23.260;2023-04-25T10:08:42;93381.56;;;16.62;94.04
6433;BME280;3249;42.690;23.260;2023-04-25T10:11:14;93375.56;;;16.67;95.77
6433;BME280;3249;42.690;23.260;2023-04-25T10:13:44;93404.53;;;16.55;93.92
6433;BME280;3249;42.690;23.260;2023-04-25T10:16:14;93401.59;;;16.28;69.02
6433;BME280;3249;42.690;23.260;2023-04-25T10:18:44;93405.81;;;16.53;64.14
6433;BME280;3249;42.690;23.260;2023-04-25T10:21:16;93406.34;;;16.83;62.65
6433;BME280;3249;42.690;23.260;2023-04-25T10:23:49;93404.47;;;17.12;61.99
6433;BME280;3249;42.690;23.260;2023-04-25T10:26:18;93395.59;;;17.13;58.61
6433;BME280;3249;42.690;23.260;2023-04-25T10:28:58;93394.25;;;17.21;60.06
6433;BME280;3249;42.690;23.260;2023-04-25T10:31:27;93382.38;;;17.33;56.60
6433;BME280;3249;42.690;23.260;2023-04-25T10:33:59;93390.63;;;17.17;58.39
6433;BME280;3249;42.690;23.260;2023-04-25T10:36:31;93390.56;;;15.69;nan
6433;BME280;3249;42.690;23.260;2023-04-25T10:39:04;93371.56;;;15.30;96.21
6433;BME280;3249;42.690;23.260;2023-04-25T10:41:56;93369.00;;;15.15;100.00
6433;BME280;3249;42.690;23.260;2023-04-25T10:44:26;93375.75;;;15.75;72.35
6433;BME280;3249;42.690;23.260;2023-04-25T10:46:57;93379.00;;;15.90;61.04
6433;BME280;3249;42.690;23.260;2023-04-25T10:49:33;93372.25;;;15.94;73.55
6433;BME280;3249;42.690;23.260;2023-04-25T10:52:25;93373.59;;;15.87;79.39
6433;BME280;3249;42.690;23.260;2023-04-25T10:54:57;93378.84;;;16.15;71.43
6433;BME280;3249;42.690;23.260;2023-04-25T10:57:31;93374.38;;;16.21;69.41
6433;BME280;3249;42.690;23.260;2023-04-25T11:00:05;93375.09;;;16.31;66.58
6433;BME280;3249;42.690;23.260;2023-04-25T11:02:47;93348.41;;;16.21;67.46
6433;BME280;3249;42.690;23.260;2023-04-25T11:05:23;93362.53;;;16.10;69.36
6433;BME280;3249;42.690;23.260;2023-04-25T11:07:59;93368.56;;;16.34;69.88
6433;BME280;3249;42.690;23.260;2023-04-25T11:10:30;93337.91;;;16.02;69.02
6433;BME280;3249;42.690;23.260;2023-04-25T11:13:01;93352.06;;;15.86;74.08
6433;BME280;3249;42.690;23.260;2023-04-25T11:15:30;93330.06;;;15.79;74.39
6433;BME280;3249;42.690;23.260;2023-04-25T11:18:00;93356.78;;;16.13;68.13
6433;BME280;3249;42.690;23.260;2023-04-25T11:20:29;93364.03;;;16.16;67.44
6433;BME280;3249;42.690;23.260;2023-04-25T11:23:01;93369.06;;;16.02;68.36
6433;BME280;3249;42.690;23.260;2023-04-25T11:25:30;93366.09;;;15.85;73.26
6433;BME280;3249;42.690;23.260;2023-04-25T11:28:00;93363.00;;;15.78;75.67
6433;BME280;3249;42.690;23.260;2023-04-25T11:30:29;93373.97;;;15.70;77.78
6433;BME280;3249;42.690;23.260;2023-04-25T11:32:58;93378.19;;;15.56;80.75
6433;BME280;3249;42.690;23.260;2023-04-25T11:35:30;93381.84;;;15.50;84.96
6433;BME280;3249;42.690;23.260;2023-04-25T11:38:02;93385.03;;;15.27;81.86
6433;BME280;3249;42.690;23.260;2023-04-25T11:40:31;93386.41;;;15.10;85.40
6433;BME280;3249;42.690;23.260;2023-04-25T11:43:01;93392.75;;;14.69;82.65
6433;BME280;3249;42.690;23.260;2023-04-25T11:45:30;93364.78;;;14.61;94.69
6433;BME280;3249;42.690;23.260;2023-04-25T11:48:01;93344.31;;;14.59;99.47
6433;BME280;3249;42.690;23.260;2023-04-25T11:50:31;93337.03;;;14.71;99.07
6433;BME280;3249;42.690;23.260;2023-04-25T11:53:02;93346.78;;;14.99;100.00
6433;BME280;3249;42.690;23.260;2023-04-25T11:55:32;93325.81;;;14.96;99.28
6433;BME280;3249;42.690;23.260;2023-04-25T11:58:03;93348.97;;;15.41;100.00
6433;BME280;3249;42.690;23.260;2023-04-25T12:00:34;93338.91;;;15.73;100.00
6433;BME280;3249;42.690;23.260;2023-04-25T12:03:03;93346.22;;;16.04;100.00
6433;BME280;3249;42.690;23.260;2023-04-25T12:05:32;93349.31;;;16.06;89.96
6433;BME280;3249;42.690;23.260;2023-04-25T12:08:13;93349.97;;;15.88;90.32
6433;BME280;3249;42.690;23.260;2023-04-25T12:10:45;93342.50;;;15.82;86.04
6433;BME280;3249;42.690;23.260;2023-04-25T12:13:19;93346.28;;;15.94;89.40
6433;BME280;3249;42.690;23.260;2023-04-25T12:15:49;93341.03;;;15.99;87.61
6433;BME280;3249;42.690;23.260;2023-04-25T12:18:23;93337.75;;;16.22;90.22
6433;BME280;3249;42.690;23.260;2023-04-25T12:20:54;93337.44;;;16.29;90.04
6433;BME280;3249;42.690;23.260;2023-04-25T12:23:29;93378.06;;;16.15;84.95
6433;BME280;3249;42.690;23.260;2023-04-25T12:25:58;93394.59;;;15.47;93.13
6433;BME280;3249;42.690;23.260;2023-04-25T12:28:28;93385.25;;;14.62;100.00
6433;BME280;3249;42.690;23.260;2023-04-25T12:31:02;93388.91;;;14.31;100.00
6433;BME280;3249;42.690;23.260;2023-04-25T12:33:33;93389.44;;;14.23;100.00
6433;BME280;3249;42.690;23.260;2023-04-25T12:36:05;93374.66;;;13.83;100.00
6433;BME280;3249;42.690;23.260;2023-04-25T12:38:42;93386.91;;;13.26;100.00
6433;BME280;3249;42.690;23.260;2023-04-25T12:41:11;93385.03;;;13.02;100.00
6433;BME280;3249;42.690;23.260;2023-04-25T12:43:41;93378.41;;;12.33;100.00
6433;BME280;3249;42.690;23.260;2023-04-25T12:46:10;93392.47;;;12.15;100.00
6433;BME280;3249;42.690;23.260;2023-04-25T12:48:39;93378.66;;;12.31;100.00
6433;BME280;3249;42.690;23.260;2023-04-25T12:51:09;93386.94;;;12.33;100.00
6433;BME280;3249;42.690;23.260;2023-04-25T12:53:41;93373.91;;;12.55;100.00
6433;BME280;3249;42.690;23.260;2023-04-25T12:56:11;93385.31;;;12.64;100.00
6433;BME280;3249;42.690;23.260;2023-04-25T12:58:40;93390.69;;;12.99;100.00
6433;BME280;3249;42.690;23.260;2023-04-25T13:01:10;93397.97;;;13.12;100.00
6433;BME280;3249;42.690;23.260;2023-04-25T13:03:40;93384.56;;;13.20;100.00
6433;BME280;3249;42.690;23.260;2023-04-25T13:06:09;93390.03;;;13.23;100.00
6433;BME280;3249;42.690;23.260;2023-04-25T13:08:41;93389.78;;;13.30;100.00
6433;BME280;3249;42.690;23.260;2023-04-25T13:11:11;93385.38;;;13.30;100.00
6433;BME280;3249;42.690;23.260;2023-04-25T13:13:40;93389.25;;;13.28;100.00
6433;BME280;3249;42.690;23.260;2023-04-25T13:16:10;93402.16;;;13.23;100.00
6433;BME280;3249;42.690;23.260;2023-04-25T13:18:41;93394.63;;;13.11;100.00
6433;BME280;3249;42.690;23.260;2023-04-25T13:21:12;93407.75;;;13.00;100.00
6433;BME280;3249;42.690;23.260;2023-04-25T13:23:44;93402.53;;;12.90;100.00
6433;BME280;3249;42.690;23.260;2023-04-25T13:26:13;93392.13;;;12.80;100.00
6433;BME280;3249;42.690;23.260;2023-04-25T13:28:43;93389.28;;;12.76;100.00
6433;BME280;3249;42.690;23.260;2023-04-25T13:31:12;93392.59;;;12.72;100.00
6433;BME280;3249;42.690;23.260;2023-04-25T13:33:41;93379.66;;;12.62;100.00
6433;BME280;3249;42.690;23.260;2023-04-25T13:36:11;93396.69;;;12.63;100.00
6433;BME280;3249;42.690;23.260;2023-04-25T13:38:42;93394.09;;;12.58;100.00
6433;BME280;3249;42.690;23.260;2023-04-25T13:41:13;93395.63;;;12.59;100.00